createdAt,value
2022-11-05T00:02:01.356Z,98285.84
2022-11-05T00:04:47.833Z,98291.75
2022-11-05T00:08:04.901Z,98294.47
2022-11-05T00:10:40.473Z,98301.25
2022-11-05T00:13:28.298Z,98300.97
2022-11-05T00:16:13.961Z,98291.25
2022-11-05T00:18:40.393Z,98299.38
2022-11-05T00:21:26.750Z,98303.66
2022-11-05T00:24:11.882Z,98307.19
2022-11-05T00:26:38.270Z,98307.97
2022-11-05T00:29:04.642Z,98319.59
2022-11-05T00:31:32.198Z,98319.59
2022-11-05T00:33:58.598Z,98315.31
2022-11-05T00:36:24.937Z,98321.22
2022-11-05T00:38:51.427Z,98322.81
2022-11-05T00:41:17.767Z,98335.25
2022-11-05T00:44:02.985Z,98323.34
2022-11-05T00:46:29.326Z,98326.06
2022-11-05T00:49:14.037Z,98325.53
2022-11-05T00:51:40.374Z,98325.22
2022-11-05T00:54:06.901Z,98333.34
2022-11-05T00:56:33.275Z,98333.66
2022-11-05T00:58:59.712Z,98339.06
2022-11-05T01:01:26.180Z,98345.56
2022-11-05T01:03:52.665Z,98344.47
2022-11-05T01:06:19.025Z,98348.28
2022-11-05T01:08:46.770Z,98353.38
2022-11-05T01:11:35.066Z,98354.19
2022-11-05T01:14:13.291Z,98356.91
2022-11-05T01:16:40.543Z,98355.00
2022-11-05T01:19:09.812Z,98352.81
2022-11-05T01:21:36.776Z,98356.63
2022-11-05T01:24:04.005Z,98357.44
2022-11-05T01:26:30.677Z,98358.53
2022-11-05T01:29:00.378Z,98367.72
2022-11-05T01:31:28.493Z,98372.31
2022-11-05T01:33:55.279Z,98372.31
2022-11-05T01:36:21.730Z,98374.75
2022-11-05T01:38:48.199Z,98373.13
2022-11-05T01:41:14.579Z,98377.47
2022-11-05T01:43:50.024Z,98377.47
2022-11-05T01:46:23.668Z,98379.34
2022-11-05T01:48:56.166Z,98383.16
2022-11-05T01:51:27.974Z,98372.63
2022-11-05T01:54:01.485Z,98376.44
2022-11-05T01:56:40.468Z,98381.03
2022-11-05T01:59:11.598Z,98389.97
2022-11-05T02:01:38.169Z,98383.22
2022-11-05T02:04:10.380Z,98385.13
2022-11-05T02:06:46.194Z,98392.16
2022-11-05T02:09:19.978Z,98384.31
2022-11-05T02:11:48.165Z,98393.50
2022-11-05T02:14:21.296Z,98393.25
2022-11-05T02:17:09.228Z,98400.53
2022-11-05T02:19:44.358Z,98392.97
2022-11-05T02:22:20.778Z,98399.16
2022-11-05T02:25:24.838Z,98399.16
2022-11-05T02:28:47.034Z,98402.97
2022-11-05T02:31:32.711Z,98399.72
2022-11-05T02:34:15.762Z,98401.38
2022-11-05T02:37:12.325Z,98402.44
2022-11-05T02:40:33.509Z,98392.41
2022-11-05T02:43:19.475Z,98410.00
2022-11-05T02:46:39.865Z,98404.59
2022-11-05T02:49:28.412Z,98411.59
2022-11-05T02:52:07.354Z,98404.59
2022-11-05T02:55:14.104Z,98400.28
2022-11-05T02:57:48.313Z,98406.78
2022-11-05T03:00:51.259Z,98403.53
2022-11-05T03:03:39.900Z,98408.16
2022-11-05T03:06:41.074Z,98404.63
2022-11-05T03:09:26.078Z,98406.53
2022-11-05T03:11:58.521Z,98407.34
2022-11-05T03:14:39.068Z,98404.63
2022-11-05T03:17:30.976Z,98416.25
2022-11-05T03:20:19.076Z,98414.66
2022-11-05T03:23:26.393Z,98421.66
2022-11-05T03:26:06.113Z,98422.47
2022-11-05T03:28:35.683Z,98433.28
2022-11-05T03:31:04.454Z,98430.59
2022-11-05T03:33:33.438Z,98435.50
2022-11-05T03:36:05.650Z,98431.97
2022-11-05T03:38:36.854Z,98433.34
2022-11-05T03:41:14.237Z,98438.25
2022-11-05T03:43:45.108Z,98441.25
2022-11-05T03:46:34.992Z,98445.84
2022-11-05T03:49:04.402Z,98442.34
2022-11-05T03:51:54.038Z,98446.34
2022-11-05T03:54:20.815Z,98444.75
2022-11-05T03:57:00.958Z,98463.09
2022-11-05T03:59:29.134Z,98453.38
2022-11-05T04:01:56.796Z,98465.81
2022-11-05T04:04:23.484Z,98466.63
2022-11-05T04:07:08.516Z,98468.81
2022-11-05T04:09:53.387Z,98468.00
2022-11-05T04:12:38.896Z,98471.81
2022-11-05T04:15:15.529Z,98469.38
2022-11-05T04:17:42.498Z,98479.16
2022-11-05T04:20:29.242Z,98481.34
2022-11-05T04:23:23.304Z,98488.66
2022-11-05T04:25:54.190Z,98483.81
2022-11-05T04:28:24.052Z,98486.50
2022-11-05T04:30:50.883Z,98484.91
2022-11-05T04:33:18.099Z,98492.72
2022-11-05T04:35:49.143Z,98499.22
2022-11-05T04:38:20.430Z,98500.31
2022-11-05T04:40:48.350Z,98494.41
2022-11-05T04:43:18.897Z,98501.41
2022-11-05T04:46:11.272Z,98497.91
2022-11-05T04:48:43.658Z,98508.72
2022-11-05T04:51:15.610Z,98507.91
2022-11-05T04:53:51.939Z,98503.31
2022-11-05T04:56:24.522Z,98502.22
2022-11-05T04:58:51.833Z,98509.25
2022-11-05T05:01:21.446Z,98512.22
2022-11-05T05:03:52.527Z,98511.72
2022-11-05T05:06:19.606Z,98513.63
2022-11-05T05:08:50.576Z,98516.31
2022-11-05T05:11:19.834Z,98512.53
2022-11-05T05:13:46.830Z,98523.34
2022-11-05T05:16:31.033Z,98527.16
2022-11-05T05:18:57.582Z,98525.53
2022-11-05T05:21:38.874Z,98526.59
2022-11-05T05:24:08.634Z,98529.88
2022-11-05T05:26:36.806Z,98539.59
2022-11-05T05:29:04.101Z,98539.09
2022-11-05T05:31:30.519Z,98535.59
2022-11-05T05:33:57.172Z,98542.59
2022-11-05T05:36:23.986Z,98535.28
2022-11-05T05:38:50.738Z,98546.09
2022-11-05T05:41:17.716Z,98556.41
2022-11-05T05:43:44.142Z,98553.16
2022-11-05T05:46:12.616Z,98556.66
2022-11-05T05:48:39.511Z,98553.16
2022-11-05T05:51:08.617Z,98557.75
2022-11-05T05:53:35.380Z,98558.84
2022-11-05T05:56:01.811Z,98564.25
2022-11-05T05:58:33.175Z,98565.06
2022-11-05T06:01:09.597Z,98575.06
2022-11-05T06:03:37.373Z,98572.09
2022-11-05T06:06:05.886Z,98569.66
2022-11-05T06:08:32.704Z,98574.56
2022-11-05T06:11:00.124Z,98583.75
2022-11-05T06:13:27.217Z,98586.47
2022-11-05T06:15:53.942Z,98596.47
2022-11-05T06:18:20.311Z,98595.66
2022-11-05T06:20:46.744Z,98595.66
2022-11-05T06:23:13.558Z,98596.47
2022-11-05T06:25:41.366Z,98593.22
2022-11-05T06:28:08.042Z,98600.25
2022-11-05T06:30:34.457Z,98608.09
2022-11-05T06:33:04.920Z,98612.72
2022-11-05T06:35:32.149Z,98618.91
2022-11-05T06:38:01.779Z,98616.47
2022-11-05T06:40:29.493Z,98621.88
2022-11-05T06:42:55.899Z,98622.97
2022-11-05T06:45:22.567Z,98623.53
2022-11-05T06:47:55.905Z,98628.94
2022-11-05T06:50:22.697Z,98624.31
2022-11-05T06:53:02.866Z,98635.94
2022-11-05T06:55:31.254Z,98635.94
2022-11-05T06:57:57.940Z,98641.34
2022-11-05T07:00:24.680Z,98647.56
2022-11-05T07:02:51.044Z,98655.69
2022-11-05T07:05:17.720Z,98664.59
2022-11-05T07:07:45.611Z,98668.41
2022-11-05T07:10:15.141Z,98666.78
2022-11-05T07:12:41.913Z,98670.81
2022-11-05T07:15:09.347Z,98680.53
2022-11-05T07:17:36.226Z,98687.81
2022-11-05T07:20:03.773Z,98694.00
2022-11-05T07:22:30.148Z,98691.56
2022-11-05T07:24:56.510Z,98695.63
2022-11-05T07:27:22.925Z,98700.72
2022-11-05T07:29:49.431Z,98702.56
2022-11-05T07:32:15.802Z,98718.25
2022-11-05T07:34:42.555Z,98720.09
2022-11-05T07:37:08.995Z,98720.38
2022-11-05T07:39:35.453Z,98719.56
2022-11-05T07:42:01.846Z,98718.25
2022-11-05T07:44:28.510Z,98715.28
2022-11-05T07:46:54.847Z,98720.69
2022-11-05T07:49:21.221Z,98734.22
2022-11-05T07:51:47.554Z,98734.50
2022-11-05T07:54:13.895Z,98734.50
2022-11-05T07:56:40.269Z,98744.50
2022-11-05T07:59:06.752Z,98745.59
2022-11-05T08:01:33.309Z,98738.28
2022-11-05T08:03:59.813Z,98743.94
2022-11-05T08:06:26.210Z,98748.81
2022-11-05T08:08:52.629Z,98750.47
2022-11-05T08:11:19.029Z,98748.59
2022-11-05T08:13:45.727Z,98753.75
2022-11-05T08:16:12.166Z,98753.78
2022-11-05T08:18:38.530Z,98760.28
2022-11-05T08:21:05.757Z,98761.38
2022-11-05T08:23:32.893Z,98766.25
2022-11-05T08:25:59.288Z,98762.47
2022-11-05T08:28:26.339Z,98770.59
2022-11-05T08:30:55.360Z,98782.25
2022-11-05T08:33:23.358Z,98780.94
2022-11-05T08:35:50.297Z,98779.63
2022-11-05T08:38:18.830Z,98783.38
2022-11-05T08:40:53.316Z,98788.53
2022-11-05T08:43:19.701Z,98793.16
2022-11-05T08:45:46.137Z,98793.41
2022-11-05T08:48:15.343Z,98796.69
2022-11-05T08:50:42.774Z,98799.38
2022-11-05T08:53:10.464Z,98791.28
2022-11-05T08:55:38.412Z,98799.91
2022-11-05T08:58:07.553Z,98803.72
2022-11-05T09:00:36.741Z,98804.50
2022-11-05T09:03:06.810Z,98808.56
2022-11-05T09:05:38.205Z,98815.03
2022-11-05T09:08:06.712Z,98812.63
2022-11-05T09:10:33.602Z,98808.84
2022-11-05T09:12:59.975Z,98804.22
2022-11-05T09:15:26.670Z,98815.84
2022-11-05T09:17:53.076Z,98821.81
2022-11-05T09:20:19.572Z,98823.72
2022-11-05T09:22:46.692Z,98828.56
2022-11-05T09:25:13.165Z,98835.03
2022-11-05T09:27:39.537Z,98842.63
2022-11-05T09:30:06.505Z,98842.63
2022-11-05T09:32:33.114Z,98825.84
2022-11-05T09:35:02.391Z,98834.25
2022-11-05T09:37:29.414Z,98842.59
2022-11-05T09:39:56.194Z,98836.38
2022-11-05T09:42:26.228Z,98843.69
2022-11-05T09:44:59.285Z,98845.28
2022-11-05T09:48:01.376Z,98839.38
2022-11-05T09:50:39.110Z,98843.41
2022-11-05T09:53:06.362Z,98837.72
2022-11-05T09:55:37.393Z,98841.78
2022-11-05T09:58:14.457Z,98843.13
2022-11-05T10:00:41.790Z,98840.94
2022-11-05T10:03:14.084Z,98853.88
2022-11-05T10:05:41.425Z,98856.31
2022-11-05T10:08:18.119Z,98863.03
2022-11-05T10:11:05.051Z,98867.69
2022-11-05T10:13:47.094Z,98869.03
2022-11-05T10:16:22.521Z,98874.44
2022-11-05T10:18:55.172Z,98883.63
2022-11-05T10:21:44.141Z,98878.78
2022-11-05T10:24:15.033Z,98884.72
2022-11-05T10:26:42.010Z,98883.09
2022-11-05T10:29:13.082Z,98888.50
2022-11-05T10:31:39.835Z,98885.53
2022-11-05T10:34:08.333Z,98896.63
2022-11-05T10:36:37.016Z,98903.66
2022-11-05T10:39:23.307Z,98892.56
2022-11-05T10:42:08.357Z,98901.19
2022-11-05T10:44:48.425Z,98886.78
2022-11-05T10:47:54.304Z,98895.94
2022-11-05T10:50:25.241Z,98901.56
2022-11-05T10:52:51.580Z,98903.41
2022-11-05T10:55:24.884Z,98901.81
2022-11-05T10:57:51.899Z,98897.53
2022-11-05T11:00:25.914Z,98898.88
2022-11-05T11:02:56.370Z,98896.47
2022-11-05T11:05:38.625Z,98908.09
2022-11-05T11:08:11.265Z,98902.97
2022-11-05T11:10:48.773Z,98908.97
2022-11-05T11:13:26.930Z,98905.16
2022-11-05T11:15:54.986Z,98901.09
2022-11-05T11:18:40.080Z,98901.91
2022-11-05T11:21:14.113Z,98917.31
2022-11-05T11:23:42.132Z,98908.38
2022-11-05T11:26:11.393Z,98912.75
2022-11-05T11:28:47.139Z,98910.34
2022-11-05T11:31:22.003Z,98913.81
2022-11-05T11:34:03.302Z,98913.81
2022-11-05T11:36:45.852Z,98912.47
2022-11-05T11:39:23.775Z,98907.88
2022-11-05T11:42:01.922Z,98914.38
2022-11-05T11:44:47.733Z,98917.06
2022-11-05T11:47:23.567Z,98915.66
2022-11-05T11:50:16.510Z,98915.91
2022-11-05T11:52:46.882Z,98924.53
2022-11-05T11:55:19.277Z,98914.81
2022-11-05T11:58:02.863Z,98922.41
2022-11-05T12:00:53.736Z,98917.50
2022-11-05T12:03:44.924Z,98918.84
2022-11-05T12:06:39.320Z,98916.94
2022-11-05T12:09:41.518Z,98914.72
2022-11-05T12:12:17.961Z,98911.38
2022-11-05T12:15:06.754Z,98906.88
2022-11-05T12:17:49.272Z,98904.44
2022-11-05T12:20:44.775Z,98906.28
2022-11-05T12:23:55.054Z,98908.41
2022-11-05T12:26:49.866Z,98896.16
2022-11-05T12:29:59.047Z,98895.03
2022-11-05T12:32:49.525Z,98890.91
2022-11-05T12:35:47.037Z,98896.31
2022-11-05T12:38:38.298Z,98894.94
2022-11-05T12:41:26.666Z,98895.78
2022-11-05T12:44:06.067Z,98897.44
2022-11-05T12:46:49.605Z,98892.03
2022-11-05T12:49:36.730Z,98899.06
2022-11-05T12:52:17.367Z,98902.59
2022-11-05T12:55:04.282Z,98906.13
2022-11-05T12:57:35.793Z,98910.78
2022-11-05T13:00:08.530Z,98911.13
2022-11-05T13:02:45.081Z,98901.66
2022-11-05T13:05:38.658Z,98912.50
2022-11-05T13:08:08.502Z,98907.06
2022-11-05T13:10:45.840Z,98904.34
2022-11-05T13:13:18.485Z,98904.66
2022-11-05T13:15:53.746Z,98906.84
2022-11-05T13:18:27.513Z,98907.38
2022-11-05T13:20:56.337Z,98910.13
2022-11-05T13:23:42.052Z,98907.47
2022-11-05T13:26:19.820Z,98911.78
2022-11-05T13:28:54.003Z,98913.16
2022-11-05T13:31:28.418Z,98913.16
2022-11-05T13:33:56.352Z,98911.56
2022-11-05T13:36:49.485Z,98911.56
2022-11-05T13:39:41.468Z,98917.22
2022-11-05T13:42:39.601Z,98922.13
2022-11-05T13:45:17.965Z,98914.28
2022-11-05T13:48:18.495Z,98916.19
2022-11-05T13:51:00.269Z,98912.94
2022-11-05T13:53:54.347Z,98919.44
2022-11-05T13:56:51.892Z,98921.06
2022-11-05T13:59:37.208Z,98923.25
2022-11-05T14:02:13.703Z,98927.06
2022-11-05T14:05:01.837Z,98924.63
2022-11-05T14:07:38.197Z,98924.91
2022-11-05T14:10:28.955Z,98918.94
2022-11-05T14:12:58.725Z,98917.34
2022-11-05T14:15:28.394Z,98921.13
2022-11-05T14:18:05.619Z,98924.94
2022-11-05T14:20:31.906Z,98934.41
2022-11-05T14:23:17.354Z,98928.47
2022-11-05T14:25:43.734Z,98932.28
2022-11-05T14:28:29.002Z,98921.72
2022-11-05T14:30:55.404Z,98922.00
2022-11-05T14:33:24.908Z,98921.75
2022-11-05T14:35:52.960Z,98927.72
2022-11-05T14:38:25.489Z,98929.88
2022-11-05T14:41:00.685Z,98936.38
2022-11-05T14:43:29.213Z,98933.44
2022-11-05T14:46:00.738Z,98943.47
2022-11-05T14:48:46.261Z,98950.22
2022-11-05T14:51:30.995Z,98942.38
2022-11-05T14:54:06.509Z,98950.78
2022-11-05T14:56:55.854Z,98949.97
2022-11-05T14:59:28.037Z,98960.25
2022-11-05T15:01:57.610Z,98955.13
2022-11-05T15:04:31.462Z,98958.94
2022-11-05T15:07:04.187Z,98955.94
2022-11-05T15:09:40.352Z,98950.81
2022-11-05T15:12:09.923Z,98958.13
2022-11-05T15:14:42.239Z,98956.50
2022-11-05T15:17:30.261Z,98955.69
2022-11-05T15:20:15.385Z,98955.94
2022-11-05T15:22:45.198Z,98955.69
2022-11-05T15:25:22.909Z,98957.03
2022-11-05T15:27:52.445Z,98959.50
2022-11-05T15:30:22.012Z,98955.94
2022-11-05T15:32:48.471Z,98960.56
2022-11-05T15:35:27.238Z,98970.56
2022-11-05T15:38:01.830Z,98977.06
2022-11-05T15:40:31.951Z,98966.25
2022-11-05T15:43:10.513Z,98962.22
2022-11-05T15:45:37.209Z,98959.50
2022-11-05T15:48:13.249Z,98963.56
2022-11-05T15:50:40.098Z,98963.56
2022-11-05T15:53:47.451Z,98964.91
2022-11-05T15:56:36.325Z,98967.91
2022-11-05T15:59:19.644Z,98971.72
2022-11-05T16:01:49.848Z,98972.78
2022-11-05T16:04:22.424Z,98976.03
2022-11-05T16:06:59.218Z,98965.22
2022-11-05T16:09:28.559Z,98969.28
2022-11-05T16:12:20.067Z,98973.09
2022-11-05T16:15:08.396Z,98983.34
2022-11-05T16:17:37.732Z,98982.53
2022-11-05T16:20:32.120Z,98992.84
2022-11-05T16:23:07.930Z,98989.31
2022-11-05T16:25:42.949Z,98988.50
2022-11-05T16:28:24.847Z,98985.25
2022-11-05T16:30:53.739Z,98993.38
2022-11-05T16:33:20.289Z,98996.63
2022-11-05T16:35:49.331Z,98996.63
2022-11-05T16:38:17.057Z,99003.41
2022-11-05T16:40:44.254Z,99016.94
2022-11-05T16:43:24.441Z,99016.38
2022-11-05T16:45:57.070Z,99020.16
2022-11-05T16:48:24.107Z,99020.44
2022-11-05T16:50:50.483Z,99020.72
2022-11-05T16:53:17.586Z,99014.22
2022-11-05T16:55:45.410Z,99015.59
2022-11-05T16:58:23.686Z,99019.38
2022-11-05T17:00:52.391Z,99019.94
2022-11-05T17:03:20.249Z,99021.81
2022-11-05T17:05:46.921Z,99015.88
2022-11-05T17:08:13.722Z,99020.97
2022-11-05T17:10:40.618Z,99029.09
2022-11-05T17:13:07.104Z,99021.00
2022-11-05T17:15:37.178Z,99027.75
2022-11-05T17:18:04.998Z,99020.47
2022-11-05T17:20:39.979Z,99031.78
2022-11-05T17:23:09.261Z,99033.41
2022-11-05T17:25:36.107Z,99032.31
2022-11-05T17:28:03.302Z,99032.03
2022-11-05T17:30:30.164Z,99034.19
2022-11-05T17:32:56.690Z,99042.56
2022-11-05T17:35:23.429Z,99046.63
2022-11-05T17:37:50.353Z,99043.63
2022-11-05T17:40:18.879Z,99036.31
2022-11-05T17:42:46.249Z,99039.84
2022-11-05T17:45:13.222Z,99036.56
2022-11-05T17:47:40.697Z,99038.97
2022-11-05T17:50:09.712Z,99045.41
2022-11-05T17:52:36.493Z,99041.06
2022-11-05T17:55:05.295Z,99049.44
2022-11-05T17:57:31.836Z,99044.56
2022-11-05T17:59:58.297Z,99048.56
2022-11-05T18:02:24.927Z,99054.75
2022-11-05T18:04:51.539Z,99062.00
2022-11-05T18:07:18.079Z,99075.78
2022-11-05T18:09:44.562Z,99070.91
2022-11-05T18:12:10.931Z,99068.97
2022-11-05T18:14:37.498Z,99070.34
2022-11-05T18:17:03.947Z,99071.94
2022-11-05T18:19:30.455Z,99065.97
2022-11-05T18:21:56.951Z,99077.28
2022-11-05T18:24:23.527Z,99083.19
2022-11-05T18:26:50.414Z,99089.91
2022-11-05T18:29:16.960Z,99091.25
2022-11-05T18:31:43.366Z,99076.09
2022-11-05T18:34:10.374Z,99089.84
2022-11-05T18:36:36.871Z,99084.16
2022-11-05T18:39:05.296Z,99090.09
2022-11-05T18:41:31.857Z,99088.19
2022-11-05T18:43:59.877Z,99074.94
2022-11-05T18:46:56.030Z,99078.69
2022-11-05T18:49:13.652Z,99077.59
2022-11-05T18:51:40.781Z,99083.50
2022-11-05T18:54:08.531Z,99086.16
2022-11-05T18:56:35.676Z,99080.22
2022-11-05T18:59:30.022Z,99076.16
2022-11-05T19:01:49.137Z,99071.00
2022-11-05T19:04:15.756Z,99069.91
2022-11-05T19:06:42.646Z,99067.72
2022-11-05T19:09:11.911Z,99075.78
2022-11-05T19:11:39.730Z,99080.91
2022-11-05T19:14:07.212Z,99070.94
2022-11-05T19:16:34.063Z,99071.97
2022-11-05T19:19:02.501Z,99074.09
2022-11-05T19:21:29.557Z,99072.44
2022-11-05T19:24:00.139Z,99069.75
2022-11-05T19:26:29.436Z,99071.34
2022-11-05T19:28:58.774Z,99074.06
2022-11-05T19:31:26.457Z,99071.84
2022-11-05T19:33:54.012Z,99075.13
2022-11-05T19:36:22.301Z,99065.66
2022-11-05T19:39:00.953Z,99068.06
2022-11-05T19:41:28.486Z,99070.19
2022-11-05T19:43:58.057Z,99072.59
2022-11-05T19:46:29.096Z,99076.59
2022-11-05T19:48:55.715Z,99079.59
2022-11-05T19:51:25.033Z,99080.94
2022-11-05T19:53:52.901Z,99070.16
2022-11-05T19:56:22.683Z,99073.34
2022-11-05T19:58:49.348Z,99080.94
2022-11-05T20:01:17.315Z,99083.63
2022-11-05T20:03:47.443Z,99067.66
2022-11-05T20:06:18.067Z,99060.66
2022-11-05T20:09:14.854Z,99086.53
2022-11-05T20:11:32.005Z,99074.59
2022-11-05T20:14:01.703Z,99089.47
2022-11-05T20:16:34.639Z,99080.81
2022-11-05T20:19:01.442Z,99094.34
2022-11-05T20:21:27.986Z,99098.09
2022-11-05T20:23:56.796Z,99101.56
2022-11-05T20:26:26.588Z,99106.94
2022-11-05T20:28:53.696Z,99103.16
2022-11-05T20:31:20.243Z,99108.56
2022-11-05T20:33:46.910Z,99109.84
2022-11-05T20:36:20.196Z,99109.03
2022-11-05T20:38:52.175Z,99115.00
2022-11-05T20:41:19.149Z,99112.59
2022-11-05T20:43:46.789Z,99103.69
2022-11-05T20:46:15.343Z,99106.66
2022-11-05T20:48:42.500Z,99098.50
2022-11-05T20:51:14.666Z,99103.91
2022-11-05T20:53:41.761Z,99106.31
2022-11-05T20:56:09.480Z,99107.66
2022-11-05T20:58:37.564Z,99099.03
2022-11-05T21:01:05.539Z,99103.28
2022-11-05T21:03:32.206Z,99116.22
2022-11-05T21:06:00.103Z,99108.16
2022-11-05T21:08:28.582Z,99109.81
2022-11-05T21:10:55.994Z,99101.13
2022-11-05T21:13:23.138Z,99108.16
2022-11-05T21:15:51.904Z,99104.91
2022-11-05T21:18:27.323Z,99093.03
2022-11-05T21:20:54.260Z,99098.41
2022-11-05T21:23:21.471Z,99097.56
2022-11-05T21:25:48.275Z,99095.66
2022-11-05T21:28:18.721Z,99096.09
2022-11-05T21:30:46.453Z,99097.41
2022-11-05T21:33:14.523Z,99101.91
2022-11-05T21:35:44.010Z,99096.53
2022-11-05T21:38:11.829Z,99104.03
2022-11-05T21:40:38.845Z,99096.72
2022-11-05T21:43:05.491Z,99099.19
2022-11-05T21:45:32.561Z,99106.19
2022-11-05T21:47:59.282Z,99097.53
2022-11-05T21:50:44.488Z,99094.28
2022-11-05T21:53:40.706Z,99097.53
2022-11-05T21:56:34.875Z,99105.38
2022-11-05T21:59:19.931Z,99094.28
2022-11-05T22:01:47.693Z,99100.16
2022-11-05T22:04:14.197Z,99096.91
2022-11-05T22:06:40.638Z,99096.91
2022-11-05T22:09:07.064Z,99094.47
2022-11-05T22:11:37.283Z,99099.53
2022-11-05T22:14:04.202Z,99088.19
2022-11-05T22:16:30.727Z,99090.88
2022-11-05T22:18:57.695Z,99089.25
2022-11-05T22:21:24.219Z,99090.88
2022-11-05T22:23:52.019Z,99094.66
2022-11-05T22:26:18.787Z,99090.59
2022-11-05T22:28:45.286Z,99091.31
2022-11-05T22:31:18.106Z,99085.88
2022-11-05T22:33:44.639Z,99090.22
2022-11-05T22:36:11.416Z,99098.50
2022-11-05T22:38:38.338Z,99092.28
2022-11-05T22:41:10.290Z,99093.28
2022-11-05T22:43:37.381Z,99087.34
2022-11-05T22:46:09.618Z,99096.47
2022-11-05T22:48:36.960Z,99082.47
2022-11-05T22:51:05.348Z,99086.22
2022-11-05T22:53:33.691Z,99081.88
2022-11-05T22:56:03.498Z,99079.19
2022-11-05T22:58:29.891Z,99078.63
2022-11-05T23:00:56.288Z,99083.47
2022-11-05T23:03:25.107Z,99078.56
2022-11-05T23:06:02.434Z,99078.00
2022-11-05T23:08:47.882Z,99078.00
2022-11-05T23:11:41.221Z,99067.81
2022-11-05T23:14:10.858Z,99071.56
2022-11-05T23:16:55.788Z,99076.94
2022-11-05T23:19:41.600Z,99067.00
2022-11-05T23:22:40.966Z,99058.09
2022-11-05T23:25:09.909Z,99065.38
2022-11-05T23:27:37.847Z,99072.63
2022-11-05T23:30:11.682Z,99074.16
2022-11-05T23:32:38.292Z,99070.91
2022-11-05T23:35:05.571Z,99067.94
2022-11-05T23:37:51.200Z,99069.28
2022-11-05T23:40:21.616Z,99057.97
2022-11-05T23:43:07.148Z,99060.34
2022-11-05T23:45:52.426Z,99055.78
2022-11-05T23:48:31.079Z,99042.91
2022-11-05T23:50:59.643Z,99033.78
2022-11-05T23:53:27.140Z,99035.41
2022-11-05T23:55:53.550Z,99041.84
2022-11-05T23:58:19.930Z,99043.38
